sensor_id;sensor_type;location;lat;lon;timestamp;temperature;humidity
16347;DHT22;8283;48.504;13.734;2024-02-14T00:00:31;5.00;79.40
16347;DHT22;8283;48.504;13.734;2024-02-14T00:02:50;4.90;79.40
16347;DHT22;8283;48.504;13.734;2024-02-14T00:05:10;4.90;79.40
16347;DHT22;8283;48.504;13.734;2024-02-14T00:07:31;4.90;79.50
16347;DHT22;8283;48.504;13.734;2024-02-14T00:09:50;4.90;79.50
16347;DHT22;8283;48.504;13.734;2024-02-14T00:12:10;4.90;79.70
16347;DHT22;8283;48.504;13.734;2024-02-14T00:14:30;4.90;79.70
16347;DHT22;8283;48.504;13.734;2024-02-14T00:16:50;4.90;79.90
16347;DHT22;8283;48.504;13.734;2024-02-14T00:19:10;4.90;79.80
16347;DHT22;8283;48.504;13.734;2024-02-14T00:21:29;4.80;79.80
16347;DHT22;8283;48.504;13.734;2024-02-14T00:23:48;4.80;79.80
16347;DHT22;8283;48.504;13.734;2024-02-14T00:26:08;4.80;79.90
16347;DHT22;8283;48.504;13.734;2024-02-14T00:28:27;4.80;79.90
16347;DHT22;8283;48.504;13.734;2024-02-14T00:30:46;4.80;79.90
16347;DHT22;8283;48.504;13.734;2024-02-14T00:33:06;4.70;79.80
16347;DHT22;8283;48.504;13.734;2024-02-14T00:35:26;4.70;80.00
16347;DHT22;8283;48.504;13.734;2024-02-14T00:37:45;4.70;80.00
16347;DHT22;8283;48.504;13.734;2024-02-14T00:40:05;4.70;80.00
16347;DHT22;8283;48.504;13.734;2024-02-14T00:42:25;4.70;80.20
16347;DHT22;8283;48.504;13.734;2024-02-14T00:44:44;4.70;80.10
16347;DHT22;8283;48.504;13.734;2024-02-14T00:47:03;3.90;79.70
16347;DHT22;8283;48.504;13.734;2024-02-14T00:49:23;4.70;80.20
16347;DHT22;8283;48.504;13.734;2024-02-14T00:51:42;4.70;80.20
16347;DHT22;8283;48.504;13.734;2024-02-14T00:54:01;4.70;80.20
16347;DHT22;8283;48.504;13.734;2024-02-14T00:56:21;4.70;80.20
16347;DHT22;8283;48.504;13.734;2024-02-14T00:58:42;4.70;80.20
16347;DHT22;8283;48.504;13.734;2024-02-14T01:01:02;4.70;80.20
16347;DHT22;8283;48.504;13.734;2024-02-14T01:03:21;4.70;80.20
16347;DHT22;8283;48.504;13.734;2024-02-14T01:05:40;4.60;80.20
16347;DHT22;8283;48.504;13.734;2024-02-14T01:08:00;4.70;80.20
16347;DHT22;8283;48.504;13.734;2024-02-14T01:10:20;4.60;80.30
16347;DHT22;8283;48.504;13.734;2024-02-14T01:12:39;4.60;80.40
16347;DHT22;8283;48.504;13.734;2024-02-14T01:14:59;4.60;80.50
16347;DHT22;8283;48.504;13.734;2024-02-14T01:17:18;4.60;80.50
16347;DHT22;8283;48.504;13.734;2024-02-14T01:19:37;4.60;80.60
16347;DHT22;8283;48.504;13.734;2024-02-14T01:21:57;4.60;80.60
16347;DHT22;8283;48.504;13.734;2024-02-14T01:24:16;4.60;80.70
16347;DHT22;8283;48.504;13.734;2024-02-14T01:26:36;4.60;80.80
16347;DHT22;8283;48.504;13.734;2024-02-14T01:28:55;4.60;80.80
16347;DHT22;8283;48.504;13.734;2024-02-14T01:31:15;4.60;80.90
16347;DHT22;8283;48.504;13.734;2024-02-14T01:33:34;4.60;80.90
16347;DHT22;8283;48.504;13.734;2024-02-14T01:35:54;4.60;80.90
16347;DHT22;8283;48.504;13.734;2024-02-14T01:38:14;4.70;81.10
16347;DHT22;8283;48.504;13.734;2024-02-14T01:40:34;4.60;81.00
16347;DHT22;8283;48.504;13.734;2024-02-14T01:42:53;4.70;81.10
16347;DHT22;8283;48.504;13.734;2024-02-14T01:45:15;4.70;81.20
16347;DHT22;8283;48.504;13.734;2024-02-14T01:47:34;4.70;81.30
16347;DHT22;8283;48.504;13.734;2024-02-14T01:49:53;4.70;81.20
16347;DHT22;8283;48.504;13.734;2024-02-14T01:52:13;4.70;81.30
16347;DHT22;8283;48.504;13.734;2024-02-14T01:54:33;4.70;81.30
16347;DHT22;8283;48.504;13.734;2024-02-14T01:56:54;4.80;81.50
16347;DHT22;8283;48.504;13.734;2024-02-14T01:59:14;4.80;83.00
16347;DHT22;8283;48.504;13.734;2024-02-14T02:01:35;4.80;81.40
16347;DHT22;8283;48.504;13.734;2024-02-14T02:03:55;4.80;81.40
16347;DHT22;8283;48.504;13.734;2024-02-14T02:06:14;4.80;81.40
16347;DHT22;8283;48.504;13.734;2024-02-14T02:08:35;4.80;81.50
16347;DHT22;8283;48.504;13.734;2024-02-14T02:10:54;4.80;81.50
16347;DHT22;8283;48.504;13.734;2024-02-14T02:13:14;4.80;81.50
16347;DHT22;8283;48.504;13.734;2024-02-14T02:15:34;4.80;81.60
16347;DHT22;8283;48.504;13.734;2024-02-14T02:17:54;4.80;81.60
16347;DHT22;8283;48.504;13.734;2024-02-14T02:20:15;4.90;81.60
16347;DHT22;8283;48.504;13.734;2024-02-14T02:22:36;4.90;82.40
16347;DHT22;8283;48.504;13.734;2024-02-14T02:24:55;4.90;81.70
16347;DHT22;8283;48.504;13.734;2024-02-14T02:27:15;4.90;81.70
16347;DHT22;8283;48.504;13.734;2024-02-14T02:29:35;4.90;81.80
16347;DHT22;8283;48.504;13.734;2024-02-14T02:31:57;4.90;81.70
16347;DHT22;8283;48.504;13.734;2024-02-14T02:34:16;4.90;81.70
16347;DHT22;8283;48.504;13.734;2024-02-14T02:36:37;5.00;81.90
16347;DHT22;8283;48.504;13.734;2024-02-14T02:38:57;5.00;81.90
16347;DHT22;8283;48.504;13.734;2024-02-14T02:41:17;5.00;81.90
16347;DHT22;8283;48.504;13.734;2024-02-14T02:43:36;5.00;81.70
16347;DHT22;8283;48.504;13.734;2024-02-14T02:45:56;5.00;81.70
16347;DHT22;8283;48.504;13.734;2024-02-14T02:48:16;5.00;81.80
16347;DHT22;8283;48.504;13.734;2024-02-14T02:50:36;5.00;81.80
16347;DHT22;8283;48.504;13.734;2024-02-14T02:52:55;5.00;81.90
16347;DHT22;8283;48.504;13.734;2024-02-14T02:55:16;5.00;81.90
16347;DHT22;8283;48.504;13.734;2024-02-14T02:57:37;5.00;81.90
16347;DHT22;8283;48.504;13.734;2024-02-14T02:59:58;3.80;81.00
16347;DHT22;8283;48.504;13.734;2024-02-14T03:02:17;5.10;83.20
16347;DHT22;8283;48.504;13.734;2024-02-14T03:04:38;5.10;81.80
16347;DHT22;8283;48.504;13.734;2024-02-14T03:06:58;5.00;82.00
16347;DHT22;8283;48.504;13.734;2024-02-14T03:09:18;5.10;81.90
16347;DHT22;8283;48.504;13.734;2024-02-14T03:11:37;5.10;82.60
16347;DHT22;8283;48.504;13.734;2024-02-14T03:13:57;5.10;82.00
16347;DHT22;8283;48.504;13.734;2024-02-14T03:16:16;5.10;81.90
16347;DHT22;8283;48.504;13.734;2024-02-14T03:18:36;5.00;82.00
16347;DHT22;8283;48.504;13.734;2024-02-14T03:20:57;5.00;82.00
16347;DHT22;8283;48.504;13.734;2024-02-14T03:23:17;5.00;82.10
16347;DHT22;8283;48.504;13.734;2024-02-14T03:25:36;5.00;82.10
16347;DHT22;8283;48.504;13.734;2024-02-14T03:27:56;5.00;82.20
16347;DHT22;8283;48.504;13.734;2024-02-14T03:30:17;5.00;82.30
16347;DHT22;8283;48.504;13.734;2024-02-14T03:32:37;5.10;82.40
16347;DHT22;8283;48.504;13.734;2024-02-14T03:34:57;5.10;82.40
16347;DHT22;8283;48.504;13.734;2024-02-14T03:37:17;5.10;82.50
16347;DHT22;8283;48.504;13.734;2024-02-14T03:39:36;5.10;82.60
16347;DHT22;8283;48.504;13.734;2024-02-14T03:41:56;5.10;82.60
16347;DHT22;8283;48.504;13.734;2024-02-14T03:44:15;5.10;82.60
16347;DHT22;8283;48.504;13.734;2024-02-14T03:46:35;5.10;82.60
16347;DHT22;8283;48.504;13.734;2024-02-14T03:48:55;5.10;82.70
16347;DHT22;8283;48.504;13.734;2024-02-14T03:51:14;5.20;82.60
16347;DHT22;8283;48.504;13.734;2024-02-14T03:53:34;5.20;82.70
16347;DHT22;8283;48.504;13.734;2024-02-14T03:55:53;5.20;82.70
16347;DHT22;8283;48.504;13.734;2024-02-14T03:58:13;5.20;82.60
16347;DHT22;8283;48.504;13.734;2024-02-14T04:00:34;5.20;82.70
16347;DHT22;8283;48.504;13.734;2024-02-14T04:02:54;5.20;82.70
16347;DHT22;8283;48.504;13.734;2024-02-14T04:05:18;5.20;83.40
16347;DHT22;8283;48.504;13.734;2024-02-14T04:07:37;5.20;82.70
16347;DHT22;8283;48.504;13.734;2024-02-14T04:09:57;5.20;82.60
16347;DHT22;8283;48.504;13.734;2024-02-14T04:12:16;5.20;82.60
16347;DHT22;8283;48.504;13.734;2024-02-14T04:14:35;5.20;82.60
16347;DHT22;8283;48.504;13.734;2024-02-14T04:16:56;5.20;82.70
16347;DHT22;8283;48.504;13.734;2024-02-14T04:19:15;5.30;82.70
16347;DHT22;8283;48.504;13.734;2024-02-14T04:21:36;5.20;82.70
16347;DHT22;8283;48.504;13.734;2024-02-14T04:23:56;5.30;82.80
16347;DHT22;8283;48.504;13.734;2024-02-14T04:26:22;5.30;82.80
16347;DHT22;8283;48.504;13.734;2024-02-14T04:28:42;5.30;83.20
16347;DHT22;8283;48.504;13.734;2024-02-14T04:31:01;5.30;82.80
16347;DHT22;8283;48.504;13.734;2024-02-14T04:33:21;5.30;82.90
16347;DHT22;8283;48.504;13.734;2024-02-14T04:35:40;5.30;83.00
16347;DHT22;8283;48.504;13.734;2024-02-14T04:38:00;5.30;83.00
16347;DHT22;8283;48.504;13.734;2024-02-14T04:40:20;5.30;83.80
16347;DHT22;8283;48.504;13.734;2024-02-14T04:42:40;5.30;83.00
16347;DHT22;8283;48.504;13.734;2024-02-14T04:44:59;5.40;83.00
16347;DHT22;8283;48.504;13.734;2024-02-14T04:47:19;5.40;82.90
16347;DHT22;8283;48.504;13.734;2024-02-14T04:49:40;5.40;82.90
16347;DHT22;8283;48.504;13.734;2024-02-14T04:51:59;5.40;82.90
16347;DHT22;8283;48.504;13.734;2024-02-14T04:54:19;5.40;82.90
16347;DHT22;8283;48.504;13.734;2024-02-14T04:56:38;5.30;82.80
16347;DHT22;8283;48.504;13.734;2024-02-14T04:58:58;5.30;82.80
16347;DHT22;8283;48.504;13.734;2024-02-14T05:01:17;5.30;83.50
16347;DHT22;8283;48.504;13.734;2024-02-14T05:03:37;5.30;82.90
16347;DHT22;8283;48.504;13.734;2024-02-14T05:05:56;5.30;82.90
16347;DHT22;8283;48.504;13.734;2024-02-14T05:08:17;5.40;83.00
16347;DHT22;8283;48.504;13.734;2024-02-14T05:10:37;5.80;83.30
16347;DHT22;8283;48.504;13.734;2024-02-14T05:12:57;5.30;83.00
16347;DHT22;8283;48.504;13.734;2024-02-14T05:15:16;6.40;83.70
16347;DHT22;8283;48.504;13.734;2024-02-14T05:17:36;5.40;83.00
16347;DHT22;8283;48.504;13.734;2024-02-14T05:19:55;5.40;83.00
16347;DHT22;8283;48.504;13.734;2024-02-14T05:22:16;5.40;83.00
16347;DHT22;8283;48.504;13.734;2024-02-14T05:24:35;5.40;83.00
16347;DHT22;8283;48.504;13.734;2024-02-14T05:26:56;5.40;83.00
16347;DHT22;8283;48.504;13.734;2024-02-14T05:29:16;5.40;83.00
16347;DHT22;8283;48.504;13.734;2024-02-14T05:31:44;5.40;83.00
16347;DHT22;8283;48.504;13.734;2024-02-14T05:34:04;5.40;83.40
16347;DHT22;8283;48.504;13.734;2024-02-14T05:36:23;5.40;82.90
16347;DHT22;8283;48.504;13.734;2024-02-14T05:38:44;5.40;83.00
16347;DHT22;8283;48.504;13.734;2024-02-14T05:41:04;5.40;83.00
16347;DHT22;8283;48.504;13.734;2024-02-14T05:43:23;5.40;83.00
16347;DHT22;8283;48.504;13.734;2024-02-14T05:45:43;5.40;83.10
16347;DHT22;8283;48.504;13.734;2024-02-14T05:48:02;5.40;83.00
16347;DHT22;8283;48.504;13.734;2024-02-14T05:50:22;5.40;83.00
16347;DHT22;8283;48.504;13.734;2024-02-14T05:52:42;5.40;82.90
16347;DHT22;8283;48.504;13.734;2024-02-14T05:55:01;5.40;82.90
16347;DHT22;8283;48.504;13.734;2024-02-14T05:57:20;5.40;83.00
16347;DHT22;8283;48.504;13.734;2024-02-14T05:59:40;5.40;83.00
16347;DHT22;8283;48.504;13.734;2024-02-14T06:01:59;5.40;83.00
16347;DHT22;8283;48.504;13.734;2024-02-14T06:04:18;5.40;83.10
16347;DHT22;8283;48.504;13.734;2024-02-14T06:06:38;5.40;83.10
16347;DHT22;8283;48.504;13.734;2024-02-14T06:08:57;5.40;83.10
16347;DHT22;8283;48.504;13.734;2024-02-14T06:11:16;5.50;83.20
16347;DHT22;8283;48.504;13.734;2024-02-14T06:13:36;5.40;83.30
16347;DHT22;8283;48.504;13.734;2024-02-14T06:15:55;5.50;83.30
16347;DHT22;8283;48.504;13.734;2024-02-14T06:18:15;5.50;83.40
16347;DHT22;8283;48.504;13.734;2024-02-14T06:20:34;5.50;83.30
16347;DHT22;8283;48.504;13.734;2024-02-14T06:22:54;5.40;83.20
16347;DHT22;8283;48.504;13.734;2024-02-14T06:25:13;5.50;83.90
16347;DHT22;8283;48.504;13.734;2024-02-14T06:27:33;5.50;83.20
16347;DHT22;8283;48.504;13.734;2024-02-14T06:29:52;5.50;83.20
16347;DHT22;8283;48.504;13.734;2024-02-14T06:32:13;5.50;83.40
16347;DHT22;8283;48.504;13.734;2024-02-14T06:34:32;5.50;83.50
16347;DHT22;8283;48.504;13.734;2024-02-14T06:36:52;5.50;83.40
16347;DHT22;8283;48.504;13.734;2024-02-14T06:39:11;5.50;83.40
16347;DHT22;8283;48.504;13.734;2024-02-14T06:41:30;5.50;83.50
16347;DHT22;8283;48.504;13.734;2024-02-14T06:43:50;5.50;83.60
16347;DHT22;8283;48.504;13.734;2024-02-14T06:46:09;5.60;83.60
16347;DHT22;8283;48.504;13.734;2024-02-14T06:48:29;5.60;83.60
16347;DHT22;8283;48.504;13.734;2024-02-14T06:50:48;5.60;83.60
16347;DHT22;8283;48.504;13.734;2024-02-14T06:53:08;5.60;83.40
16347;DHT22;8283;48.504;13.734;2024-02-14T06:55:27;5.60;83.50
16347;DHT22;8283;48.504;13.734;2024-02-14T06:57:48;5.60;83.50
16347;DHT22;8283;48.504;13.734;2024-02-14T07:00:08;5.60;83.50
16347;DHT22;8283;48.504;13.734;2024-02-14T07:02:28;5.50;83.60
16347;DHT22;8283;48.504;13.734;2024-02-14T07:04:47;5.60;83.60
16347;DHT22;8283;48.504;13.734;2024-02-14T07:07:06;5.50;83.60
16347;DHT22;8283;48.504;13.734;2024-02-14T07:09:26;5.60;83.70
16347;DHT22;8283;48.504;13.734;2024-02-14T07:11:45;5.60;83.60
16347;DHT22;8283;48.504;13.734;2024-02-14T07:14:05;5.60;83.60
16347;DHT22;8283;48.504;13.734;2024-02-14T07:16:24;6.50;84.20
16347;DHT22;8283;48.504;13.734;2024-02-14T07:18:44;5.60;83.80
16347;DHT22;8283;48.504;13.734;2024-02-14T07:21:03;5.60;83.80
16347;DHT22;8283;48.504;13.734;2024-02-14T07:23:24;5.60;83.80
16347;DHT22;8283;48.504;13.734;2024-02-14T07:25:45;5.70;83.90
16347;DHT22;8283;48.504;13.734;2024-02-14T07:28:04;5.70;83.90
16347;DHT22;8283;48.504;13.734;2024-02-14T07:30:24;5.70;83.90
16347;DHT22;8283;48.504;13.734;2024-02-14T07:32:44;5.00;83.60
16347;DHT22;8283;48.504;13.734;2024-02-14T07:35:04;5.70;84.20
16347;DHT22;8283;48.504;13.734;2024-02-14T07:37:24;5.80;84.50
16347;DHT22;8283;48.504;13.734;2024-02-14T07:39:44;5.80;84.70
16347;DHT22;8283;48.504;13.734;2024-02-14T07:42:05;5.90;84.90
16347;DHT22;8283;48.504;13.734;2024-02-14T07:44:25;5.90;85.10
16347;DHT22;8283;48.504;13.734;2024-02-14T07:46:44;6.00;85.10
16347;DHT22;8283;48.504;13.734;2024-02-14T07:49:03;6.10;85.00
16347;DHT22;8283;48.504;13.734;2024-02-14T07:51:23;6.20;84.90
16347;DHT22;8283;48.504;13.734;2024-02-14T07:53:43;6.20;84.60
16347;DHT22;8283;48.504;13.734;2024-02-14T07:56:02;6.20;84.60
16347;DHT22;8283;48.504;13.734;2024-02-14T07:58:22;6.30;84.60
16347;DHT22;8283;48.504;13.734;2024-02-14T08:00:41;6.30;84.70
16347;DHT22;8283;48.504;13.734;2024-02-14T08:03:00;6.40;84.70
16347;DHT22;8283;48.504;13.734;2024-02-14T08:05:22;6.40;84.70
16347;DHT22;8283;48.504;13.734;2024-02-14T08:07:44;6.40;84.70
16347;DHT22;8283;48.504;13.734;2024-02-14T08:10:03;6.50;84.60
16347;DHT22;8283;48.504;13.734;2024-02-14T08:12:24;6.50;84.50
16347;DHT22;8283;48.504;13.734;2024-02-14T08:14:44;6.50;84.50
16347;DHT22;8283;48.504;13.734;2024-02-14T08:17:03;6.60;84.40
16347;DHT22;8283;48.504;13.734;2024-02-14T08:19:23;6.60;84.30
16347;DHT22;8283;48.504;13.734;2024-02-14T08:21:44;6.60;84.40
16347;DHT22;8283;48.504;13.734;2024-02-14T08:24:04;6.60;84.50
16347;DHT22;8283;48.504;13.734;2024-02-14T08:26:24;6.70;84.50
16347;DHT22;8283;48.504;13.734;2024-02-14T08:28:43;6.70;84.60
16347;DHT22;8283;48.504;13.734;2024-02-14T08:31:03;6.70;84.70
16347;DHT22;8283;48.504;13.734;2024-02-14T08:33:28;6.80;84.70
16347;DHT22;8283;48.504;13.734;2024-02-14T08:35:47;6.80;84.60
16347;DHT22;8283;48.504;13.734;2024-02-14T08:38:07;6.80;84.60
16347;DHT22;8283;48.504;13.734;2024-02-14T08:40:28;6.90;84.70
16347;DHT22;8283;48.504;13.734;2024-02-14T08:42:47;7.00;84.70
16347;DHT22;8283;48.504;13.734;2024-02-14T08:45:07;6.60;84.40
16347;DHT22;8283;48.504;13.734;2024-02-14T08:47:27;7.00;84.70
16347;DHT22;8283;48.504;13.734;2024-02-14T08:49:46;7.10;84.70
16347;DHT22;8283;48.504;13.734;2024-02-14T08:52:06;7.10;84.60
16347;DHT22;8283;48.504;13.734;2024-02-14T08:54:25;7.10;84.60
16347;DHT22;8283;48.504;13.734;2024-02-14T08:56:47;7.20;84.80
16347;DHT22;8283;48.504;13.734;2024-02-14T08:59:08;7.20;84.80
16347;DHT22;8283;48.504;13.734;2024-02-14T09:01:29;6.20;84.20
16347;DHT22;8283;48.504;13.734;2024-02-14T09:03:48;7.30;85.00
16347;DHT22;8283;48.504;13.734;2024-02-14T09:06:08;7.40;85.00
16347;DHT22;8283;48.504;13.734;2024-02-14T09:08:27;7.40;85.10
16347;DHT22;8283;48.504;13.734;2024-02-14T09:10:47;7.50;85.20
16347;DHT22;8283;48.504;13.734;2024-02-14T09:13:07;7.60;85.30
16347;DHT22;8283;48.504;13.734;2024-02-14T09:15:27;7.70;85.50
16347;DHT22;8283;48.504;13.734;2024-02-14T09:17:46;7.80;85.60
16347;DHT22;8283;48.504;13.734;2024-02-14T09:20:06;7.80;85.40
16347;DHT22;8283;48.504;13.734;2024-02-14T09:22:28;7.90;85.50
16347;DHT22;8283;48.504;13.734;2024-02-14T09:24:49;8.00;85.60
16347;DHT22;8283;48.504;13.734;2024-02-14T09:27:09;8.10;85.70
16347;DHT22;8283;48.504;13.734;2024-02-14T09:29:28;8.20;85.80
16347;DHT22;8283;48.504;13.734;2024-02-14T09:31:52;8.30;86.00
16347;DHT22;8283;48.504;13.734;2024-02-14T09:34:12;9.30;86.70
16347;DHT22;8283;48.504;13.734;2024-02-14T09:36:32;8.60;86.70
16347;DHT22;8283;48.504;13.734;2024-02-14T09:38:51;8.80;87.10
16347;DHT22;8283;48.504;13.734;2024-02-14T09:41:57;9.00;87.30
16347;DHT22;8283;48.504;13.734;2024-02-14T09:43:55;9.20;86.90
16347;DHT22;8283;48.504;13.734;2024-02-14T09:46:16;9.40;86.60
16347;DHT22;8283;48.504;13.734;2024-02-14T09:48:36;9.60;86.10
16347;DHT22;8283;48.504;13.734;2024-02-14T09:50:57;9.80;85.90
16347;DHT22;8283;48.504;13.734;2024-02-14T09:53:17;9.90;85.80
16347;DHT22;8283;48.504;13.734;2024-02-14T09:55:37;10.10;85.80
16347;DHT22;8283;48.504;13.734;2024-02-14T09:57:57;10.20;85.70
16347;DHT22;8283;48.504;13.734;2024-02-14T10:00:18;10.40;85.80
16347;DHT22;8283;48.504;13.734;2024-02-14T10:02:38;10.50;85.70
16347;DHT22;8283;48.504;13.734;2024-02-14T10:04:57;10.70;85.80
16347;DHT22;8283;48.504;13.734;2024-02-14T10:07:17;10.90;85.70
16347;DHT22;8283;48.504;13.734;2024-02-14T10:09:41;11.10;85.30
16347;DHT22;8283;48.504;13.734;2024-02-14T10:12:01;11.20;84.20
16347;DHT22;8283;48.504;13.734;2024-02-14T10:14:23;11.30;84.20
16347;DHT22;8283;48.504;13.734;2024-02-14T10:16:42;11.40;83.60
16347;DHT22;8283;48.504;13.734;2024-02-14T10:19:02;11.40;83.50
16347;DHT22;8283;48.504;13.734;2024-02-14T10:21:22;11.50;83.30
16347;DHT22;8283;48.504;13.734;2024-02-14T10:23:43;11.50;83.00
16347;DHT22;8283;48.504;13.734;2024-02-14T10:26:04;11.50;82.70
16347;DHT22;8283;48.504;13.734;2024-02-14T10:28:23;11.50;82.40
16347;DHT22;8283;48.504;13.734;2024-02-14T10:30:46;11.50;81.90
16347;DHT22;8283;48.504;13.734;2024-02-14T10:33:05;11.60;81.50
16347;DHT22;8283;48.504;13.734;2024-02-14T10:35:27;11.50;81.90
16347;DHT22;8283;48.504;13.734;2024-02-14T10:37:48;11.50;81.60
16347;DHT22;8283;48.504;13.734;2024-02-14T10:40:08;11.50;81.70
16347;DHT22;8283;48.504;13.734;2024-02-14T10:42:28;11.60;82.00
16347;DHT22;8283;48.504;13.734;2024-02-14T10:44:47;11.60;82.20
16347;DHT22;8283;48.504;13.734;2024-02-14T10:47:11;11.60;82.20
16347;DHT22;8283;48.504;13.734;2024-02-14T10:49:34;11.70;81.90
16347;DHT22;8283;48.504;13.734;2024-02-14T10:51:56;11.70;82.10
16347;DHT22;8283;48.504;13.734;2024-02-14T10:54:20;11.80;82.00
16347;DHT22;8283;48.504;13.734;2024-02-14T10:56:42;11.90;81.70
16347;DHT22;8283;48.504;13.734;2024-02-14T10:59:02;11.90;81.30
16347;DHT22;8283;48.504;13.734;2024-02-14T11:01:23;12.00;81.40
16347;DHT22;8283;48.504;13.734;2024-02-14T11:03:44;12.00;81.50
16347;DHT22;8283;48.504;13.734;2024-02-14T11:06:04;12.10;82.30
16347;DHT22;8283;48.504;13.734;2024-02-14T11:08:23;12.20;81.80
16347;DHT22;8283;48.504;13.734;2024-02-14T11:10:53;12.30;81.90
16347;DHT22;8283;48.504;13.734;2024-02-14T11:13:13;12.40;80.60
16347;DHT22;8283;48.504;13.734;2024-02-14T11:15:35;12.50;82.30
16347;DHT22;8283;48.504;13.734;2024-02-14T11:18:04;12.70;82.10
16347;DHT22;8283;48.504;13.734;2024-02-14T11:20:34;12.80;79.20
16347;DHT22;8283;48.504;13.734;2024-02-14T11:23:00;12.90;79.00
16347;DHT22;8283;48.504;13.734;2024-02-14T11:25:23;13.00;80.10
16347;DHT22;8283;48.504;13.734;2024-02-14T11:27:47;13.10;79.70
16347;DHT22;8283;48.504;13.734;2024-02-14T11:30:06;13.10;79.50
16347;DHT22;8283;48.504;13.734;2024-02-14T11:32:27;13.20;79.40
16347;DHT22;8283;48.504;13.734;2024-02-14T11:34:54;13.20;79.40
16347;DHT22;8283;48.504;13.734;2024-02-14T11:37:14;13.30;78.50
16347;DHT22;8283;48.504;13.734;2024-02-14T11:39:34;13.40;79.70
16347;DHT22;8283;48.504;13.734;2024-02-14T11:41:55;13.50;80.10
16347;DHT22;8283;48.504;13.734;2024-02-14T11:44:15;13.60;80.30
16347;DHT22;8283;48.504;13.734;2024-02-14T11:46:36;13.70;80.40
16347;DHT22;8283;48.504;13.734;2024-02-14T11:48:55;13.90;78.80
16347;DHT22;8283;48.504;13.734;2024-02-14T11:51:16;14.10;77.20
16347;DHT22;8283;48.504;13.734;2024-02-14T11:53:38;14.20;78.00
16347;DHT22;8283;48.504;13.734;2024-02-14T11:56:00;14.30;77.80
16347;DHT22;8283;48.504;13.734;2024-02-14T11:58:19;14.50;78.50
16347;DHT22;8283;48.504;13.734;2024-02-14T12:00:48;14.60;78.90
16347;DHT22;8283;48.504;13.734;2024-02-14T12:03:20;14.80;76.90
16347;DHT22;8283;48.504;13.734;2024-02-14T12:05:40;15.00;77.20
16347;DHT22;8283;48.504;13.734;2024-02-14T12:08:02;15.20;78.60
16347;DHT22;8283;48.504;13.734;2024-02-14T12:10:22;15.30;78.20
16347;DHT22;8283;48.504;13.734;2024-02-14T12:12:45;15.50;77.60
16347;DHT22;8283;48.504;13.734;2024-02-14T12:15:05;15.60;75.60
16347;DHT22;8283;48.504;13.734;2024-02-14T12:17:28;15.70;76.50
16347;DHT22;8283;48.504;13.734;2024-02-14T12:19:48;15.80;76.30
16347;DHT22;8283;48.504;13.734;2024-02-14T12:22:10;15.90;76.30
16347;DHT22;8283;48.504;13.734;2024-02-14T12:24:48;15.90;75.80
16347;DHT22;8283;48.504;13.734;2024-02-14T12:27:08;16.00;75.80
16347;DHT22;8283;48.504;13.734;2024-02-14T12:29:27;16.00;75.40
16347;DHT22;8283;48.504;13.734;2024-02-14T12:31:46;16.10;75.00
16347;DHT22;8283;48.504;13.734;2024-02-14T12:34:06;16.10;74.60
16347;DHT22;8283;48.504;13.734;2024-02-14T12:36:26;16.00;74.30
16347;DHT22;8283;48.504;13.734;2024-02-14T12:38:47;16.00;74.00
16347;DHT22;8283;48.504;13.734;2024-02-14T12:41:07;15.90;73.90
16347;DHT22;8283;48.504;13.734;2024-02-14T12:43:27;15.90;73.40
16347;DHT22;8283;48.504;13.734;2024-02-14T12:45:46;15.80;73.40
16347;DHT22;8283;48.504;13.734;2024-02-14T12:48:06;15.70;73.30
16347;DHT22;8283;48.504;13.734;2024-02-14T12:50:27;15.60;73.30
16347;DHT22;8283;48.504;13.734;2024-02-14T12:52:46;15.60;73.20
16347;DHT22;8283;48.504;13.734;2024-02-14T12:55:08;15.50;73.20
16347;DHT22;8283;48.504;13.734;2024-02-14T12:57:28;15.50;73.10
16347;DHT22;8283;48.504;13.734;2024-02-14T12:59:47;15.40;72.80
16347;DHT22;8283;48.504;13.734;2024-02-14T13:02:07;15.40;72.90
16347;DHT22;8283;48.504;13.734;2024-02-14T13:04:26;15.30;72.70
16347;DHT22;8283;48.504;13.734;2024-02-14T13:06:46;15.20;72.80
16347;DHT22;8283;48.504;13.734;2024-02-14T13:09:06;15.10;72.80
16347;DHT22;8283;48.504;13.734;2024-02-14T13:11:27;15.10;72.80
16347;DHT22;8283;48.504;13.734;2024-02-14T13:13:47;15.00;72.90
16347;DHT22;8283;48.504;13.734;2024-02-14T13:16:07;15.00;73.00
16347;DHT22;8283;48.504;13.734;2024-02-14T13:18:26;14.90;72.80
16347;DHT22;8283;48.504;13.734;2024-02-14T13:20:45;14.90;73.00
16347;DHT22;8283;48.504;13.734;2024-02-14T13:23:05;14.90;73.10
16347;DHT22;8283;48.504;13.734;2024-02-14T13:25:28;14.90;73.20
16347;DHT22;8283;48.504;13.734;2024-02-14T13:27:47;14.90;73.20
16347;DHT22;8283;48.504;13.734;2024-02-14T13:30:07;14.90;73.40
16347;DHT22;8283;48.504;13.734;2024-02-14T13:32:27;14.90;73.20
16347;DHT22;8283;48.504;13.734;2024-02-14T13:34:46;14.90;73.30
16347;DHT22;8283;48.504;13.734;2024-02-14T13:37:07;15.00;74.00
16347;DHT22;8283;48.504;13.734;2024-02-14T13:39:28;15.00;73.20
16347;DHT22;8283;48.504;13.734;2024-02-14T13:41:47;15.00;73.50
16347;DHT22;8283;48.504;13.734;2024-02-14T13:44:07;14.90;72.70
16347;DHT22;8283;48.504;13.734;2024-02-14T13:46:27;14.90;72.80
16347;DHT22;8283;48.504;13.734;2024-02-14T13:48:47;14.90;72.70
16347;DHT22;8283;48.504;13.734;2024-02-14T13:51:06;14.90;72.50
16347;DHT22;8283;48.504;13.734;2024-02-14T13:53:27;14.80;72.30
16347;DHT22;8283;48.504;13.734;2024-02-14T13:55:47;14.70;72.30
16347;DHT22;8283;48.504;13.734;2024-02-14T13:58:06;14.70;72.10
16347;DHT22;8283;48.504;13.734;2024-02-14T14:00:29;14.60;72.10
16347;DHT22;8283;48.504;13.734;2024-02-14T14:02:48;14.50;71.90
16347;DHT22;8283;48.504;13.734;2024-02-14T14:05:08;14.50;72.00
16347;DHT22;8283;48.504;13.734;2024-02-14T14:07:28;14.40;71.90
16347;DHT22;8283;48.504;13.734;2024-02-14T14:09:48;14.30;71.80
16347;DHT22;8283;48.504;13.734;2024-02-14T14:12:07;14.20;71.90
16347;DHT22;8283;48.504;13.734;2024-02-14T14:14:27;14.10;72.40
16347;DHT22;8283;48.504;13.734;2024-02-14T14:16:48;14.10;71.90
16347;DHT22;8283;48.504;13.734;2024-02-14T14:19:07;14.00;72.50
16347;DHT22;8283;48.504;13.734;2024-02-14T14:21:27;13.90;71.90
16347;DHT22;8283;48.504;13.734;2024-02-14T14:23:46;13.80;72.00
16347;DHT22;8283;48.504;13.734;2024-02-14T14:26:06;13.80;72.00
16347;DHT22;8283;48.504;13.734;2024-02-14T14:28:26;13.70;72.10
16347;DHT22;8283;48.504;13.734;2024-02-14T14:30:46;13.60;72.10
16347;DHT22;8283;48.504;13.734;2024-02-14T14:33:05;13.60;72.10
16347;DHT22;8283;48.504;13.734;2024-02-14T14:35:26;13.60;72.20
16347;DHT22;8283;48.504;13.734;2024-02-14T14:37:46;13.50;72.30
16347;DHT22;8283;48.504;13.734;2024-02-14T14:40:06;13.50;72.40
16347;DHT22;8283;48.504;13.734;2024-02-14T14:42:27;13.50;72.60
16347;DHT22;8283;48.504;13.734;2024-02-14T14:44:47;13.50;72.70
16347;DHT22;8283;48.504;13.734;2024-02-14T14:47:07;13.50;72.80
16347;DHT22;8283;48.504;13.734;2024-02-14T14:49:26;13.50;72.90
16347;DHT22;8283;48.504;13.734;2024-02-14T14:51:45;13.50;72.90
16347;DHT22;8283;48.504;13.734;2024-02-14T14:54:04;13.50;72.90